• Join FlightAware (Why Join?)
  • Login
  • US Flag 
05:55PM EST


 

Airport Tracker/Info


-or-


 

Live Flight TrackerFlight Track Log ✈ UAL4663 ✈ 01-Nov-2013 ✈ KOKC - KIAH

Flight Track Log - Related Links

Times and Time Zones

All times are in EDT time to prevent confusion due to time zone crossing. See the UAL4663 flight status page for this flight to view local times or setup timezone preferences in your user account.

Time Position Orientation Groundspeed Altitude Reporting Facility
EDT Latitude Longitude Course Direction KTS MPH feet Rate Location/Type
04:32PM 35.4103 -97.6250 315° West 163 188 2,200  Level Fort Worth Center
04:33PM 35.4497 -97.6736 315° West 189 217 4,700 2,250 Climbing Fort Worth Center
04:34PM 35.4308 -97.7372 250° West 262 302 7,000 2,091 Climbing Fort Worth Center
04:34PM 35.4308 -97.7397 270° West 265 305 7,000 1,846 Level Fort Worth Center
04:35PM 35.3536 -97.7189 168° South 293 337 9,000 2,000 Climbing Fort Worth Center
04:36PM 35.2703 -97.6856 162° South 316 364 11,000 1,350 Climbing Fort Worth Center
04:37PM 35.1808 -97.6550 164° South 329 379 11,700 1,100 Climbing Fort Worth Center
04:38PM 35.0828 -97.6217 164° South 348 400 13,200 1,500 Climbing Fort Worth Center
04:39PM 34.9806 -97.5883 165° South 365 420 14,700 1,500 Climbing Fort Worth Center
04:40PM 34.8806 -97.5553 165° South 376 433 16,200 1,350 Climbing Fort Worth Center
04:41PM 34.7806 -97.5197 164° South 376 433 17,400 1,250 Climbing Fort Worth Center
04:42PM 34.6783 -97.4867 165° South 376 433 18,700 1,250 Climbing Fort Worth Center
04:43PM 34.5739 -97.4539 166° South 376 433 19,900 1,200 Climbing Fort Worth Center
04:44PM 34.4675 -97.4186 165° South 381 438 21,100 1,250 Climbing Fort Worth Center
04:45PM 34.3611 -97.3858 166° South 394 453 22,400 1,200 Climbing Fort Worth Center
04:46PM 34.2525 -97.3481 164° South 399 459 23,500 1,100 Climbing Fort Worth Center
04:47PM 34.1442 -97.3131 165° South 399 459 24,600 1,100 Climbing Fort Worth Center
04:48PM 34.0292 -97.2706 163° South 394 453 25,700 1,050 Climbing Fort Worth Center
04:49PM 33.9228 -97.2333 164° South 394 453 26,700 1,000 Climbing Fort Worth Center
04:50PM 33.8142 -97.2008 166° South 399 459 27,700 1,050 Climbing Fort Worth Center
04:51PM 33.7056 -97.1639 164° South 399 459 28,800 1,050 Climbing Fort Worth Center
04:52PM 33.5992 -97.1317 166° South 399 459 29,800 1,000 Climbing Fort Worth Center
04:53PM 33.4906 -97.1047 168° South 399 459 30,800 600 Climbing Fort Worth Center
04:54PM 33.3861 -97.1075 181° South 388 447 31,000 100 Climbing Fort Worth Center
04:55PM 33.2733 -97.1128 182° South 388 447 31,000  Level Fort Worth Center
04:56PM 33.1567 -97.1181 182° South 405 466 31,000  Level Fort Worth Center
04:57PM 33.0356 -97.1186 180° South 428 493 31,000  Level Fort Worth Center
04:58PM 32.9208 -97.1264 183° South 452 520 31,000  Level Fort Worth Center
04:59PM 32.7850 -97.1317 182° South 452 520 31,000  Level Fort Worth Center
05:00PM 32.6556 -97.1344 181° South 457 526 31,000  Level Fort Worth Center
05:01PM 32.5322 -97.0733 157° South 457 526 31,000 -250 Level Fort Worth Center
05:02PM 32.4111 -97.0075 155° Southeast 462 532 30,500 -700 Descending Fort Worth Center
05:03PM 32.2897 -96.9367 154° Southeast 476 548 29,600 -750 Descending Fort Worth Center
05:04PM 32.1683 -96.8711 155° Southeast 482 555 29,000 -196 Descending Fort Worth Center
05:06PM 31.9419 -96.7456 155° Southeast 459 528 29,000  Level Houston Center
05:07PM 31.8244 -96.6808 155° Southeast 459 528 29,000  Level Houston Center
05:08PM 31.6853 -96.6042 155° Southeast 464 534 29,000  Level Houston Center
05:09PM 31.5664 -96.5389 155° Southeast 466 536 29,000  Level Houston Center
05:10PM 31.4436 -96.4842 159° South 465 535 29,000 -816 Level Houston Center
05:12PM 31.3169 -96.4381 163° South 467 537 27,300 -1,887 Descending Houston Center
05:13PM 31.1942 -96.3919 162° South 463 533 25,100 -1,839 Descending Houston Center
05:14PM 31.0769 -96.3489 163° South 446 513 23,500 -1,742 Descending Houston Center
05:15PM 30.9694 -96.2936 156° South 428 493 21,500 -2,226 Descending Houston Center
05:16PM 30.8692 -96.2089 144° Southeast 435 501 18,900 -2,806 Descending Houston Center
05:17PM 30.7578 -96.1164 144° Southeast 423 487 15,700 -2,942 Descending Houston Center
05:17PM 30.6928 -96.0633 145° Southeast 397 457 13,800 -2,613 Descending Houston Center
05:18PM 30.6683 -96.0403 141° Southeast 406 467 13,000 -2,464 Descending Houston Center
05:18PM 30.6161 -95.9994 146° Southeast 375 432 11,500 -2,129 Descending Houston Center
05:19PM 30.5964 -95.9806 140° Southeast 382 440 10,800 -1,475 Descending Houston Center
05:19PM 30.5303 -95.9292 146° Southeast 362 417 10,000 -871 Descending Houston Center
05:20PM 30.5011 -95.9011 140° Southeast 358 412 9,900  Descending Houston Center
05:20PM 30.4647 -95.8739 147° Southeast 303 349 10,000 97 Climbing Houston Center
05:21PM 30.4269 -95.8486 150° Southeast 320 368 10,000  Level Houston Center
05:21PM 30.3733 -95.8383 171° South 302 348 10,000 -476 Level Houston Center
05:22PM 30.3456 -95.8308 167° South 302 348 9,500 -1,500 Descending Houston Center
05:22PM 30.2983 -95.8206 169° South 295 339 8,600 -1,355 Descending Houston Center
05:23PM 30.2667 -95.8114 166° South 294 338 8,100 -590 Descending Houston Center
05:23PM 30.2253 -95.8000 167° South 243 280 8,000 -97 Descending Houston Center
05:24PM 30.1975 -95.7917 165° South 268 308 8,000 -197 Level Houston Center
05:24PM 30.1586 -95.7811 167° South 246 283 7,800 -871 Descending Houston Center
05:25PM 30.1206 -95.7694 165° South 242 278 7,100 -1,161 Descending Houston Center
05:25PM 30.0917 -95.7625 168° South 234 269 6,600 -1,161 Descending Houston Center
05:26PM 30.0561 -95.7522 166° South 237 273 5,900 -1,258 Descending Houston Center
05:26PM 30.0306 -95.7358 151° Southeast 243 280 5,300 -1,161 Descending Houston Center
05:27PM 30.0164 -95.6947 112° Southeast 248 285 4,700 -1,164 Descending Houston Center
05:28PM 30.0000 -95.6500 113° Southeast 253 291 4,000 -968 Descending Houston Center
05:28PM 29.9933 -95.6206 105° East 248 285 3,700 -327 Descending Houston Center
05:28PM 29.9922 -95.5883 92° East 209 241 3,700 -484 Level Houston Center
05:29PM 29.9928 -95.5528 89° East 214 246 3,200 -871 Descending Houston Center
05:29PM 29.9922 -95.5183 91° East 209 241 2,800 -871 Descending Houston Center
05:30PM 29.9939 -95.4881 86° East 208 239 2,300 -984 Descending Houston Center
05:30PM 29.9931 -95.4556 92° East 186 214 1,800 -1,065 Descending Houston Center
05:31PM 29.9947 -95.4197 87° East 193 222 1,200 -774 Descending Houston Center
05:32PM 29.9928 -95.4072 100° East 144 166 1,000 -667 Descending Houston Center
05:32PM 29.9933 -95.3761 89° East 162 186 500 -408 Descending Houston Center
05:33PM 29.9925 -95.3322 91° East 158 182 300 -194 Descending Houston Center